Time;durP1;ratioP1;P1;durP2;ratioP2;P2;SDS_P1;SDS_P2;PMS_P1;PMS_P2;Temp;Humidity;BMP_temperature;BMP_pressure;BME280_temperature;BME280_humidity;BME280_pressure;Samples;Min_cycle;Max_cycle;Signal;HPM_P1;HPM_P2
2023/01/06 00:00:36;;;;;;;;;;;9.70;99.90;;;;;;5037750;28;19921;-74
2023/01/06 00:03:02;;;;;;;;;;;9.70;99.90;;;;;;5007054;28;19932;-74
2023/01/06 00:05:28;;;;;;;;;;;9.70;99.90;;;;;;5024194;28;20064;-75
2023/01/06 00:07:54;;;;;;;;;;;9.70;99.90;;;;;;5020364;28;19921;-74
2023/01/06 00:10:20;;;;;;;;;;;9.70;99.90;;;;;;5035403;28;19967;-74
2023/01/06 00:12:46;;;;;;;;;;;9.70;99.90;;;;;;5035000;28;19921;-74
2023/01/06 00:15:12;;;;;;;;;;;9.70;99.90;;;;;;4989852;28;21265;-74
2023/01/06 00:17:38;;;;;;;;;;;9.70;99.90;;;;;;5021474;28;19928;-75
2023/01/06 00:20:04;;;;;;;;;;;9.80;99.90;;;;;;5021988;28;20003;-74
2023/01/06 00:22:33;;;;;;;;;;;9.70;99.90;;;;;;5009206;28;19922;-74
2023/01/06 00:24:58;;;;;;;;;;;9.80;99.90;;;;;;5006751;28;20406;-73
2023/01/06 00:27:24;;;;;;;;;;;9.80;99.90;;;;;;5022284;28;20008;-74
2023/01/06 00:29:50;;;;;;;;;;;9.80;99.90;;;;;;5040298;28;20310;-74
2023/01/06 00:32:15;;;;;;;;;;;9.80;99.90;;;;;;5038191;28;19921;-74
2023/01/06 00:34:41;;;;;;;;;;;9.80;99.90;;;;;;5037382;28;19930;-75
2023/01/06 00:37:07;;;;;;;;;;;9.80;99.90;;;;;;5006870;28;20358;-74
2023/01/06 00:39:32;;;;;;;;;;;9.80;99.90;;;;;;5022126;28;19933;-74
2023/01/06 00:42:05;;;;;;;;;;;9.80;99.90;;;;;;5023129;28;19921;-74
2023/01/06 00:44:33;;;;;;;;;;;9.90;99.90;;;;;;5020497;28;19983;-74
2023/01/06 00:46:59;;;;;;;;;;;9.90;99.90;;;;;;5035336;28;20777;-74
2023/01/06 00:49:25;;;;;;;;;;;9.90;99.90;;;;;;5005809;28;20036;-74
2023/01/06 00:51:51;;;;;;;;;;;9.90;99.90;;;;;;5021611;28;19960;-74
2023/01/06 00:54:17;;;;;;;;;;;9.90;99.90;;;;;;5006222;28;20290;-74
2023/01/06 00:56:43;;;;;;;;;;;9.90;99.90;;;;;;5035146;28;20011;-75
2023/01/06 00:59:10;;;;;;;;;;;9.90;99.90;;;;;;5022005;28;20012;-74
2023/01/06 01:01:36;;;;;;;;;;;9.90;99.90;;;;;;5019372;28;19931;-74
2023/01/06 01:04:02;;;;;;;;;;;10.00;99.90;;;;;;5035028;28;19921;-74
2023/01/06 01:06:27;;;;;;;;;;;10.00;99.90;;;;;;5006656;28;20433;-74
2023/01/06 01:08:53;;;;;;;;;;;9.90;99.90;;;;;;5018203;28;20184;-74
2023/01/06 01:14:03;;;;;;;;;;;9.90;99.90;;;;;;5021706;28;19992;-74
2023/01/06 01:16:29;;;;;;;;;;;9.90;99.90;;;;;;5020633;28;20052;-74
2023/01/06 01:18:54;;;;;;;;;;;9.90;99.90;;;;;;5020108;28;19939;-75
2023/01/06 01:21:20;;;;;;;;;;;9.90;99.90;;;;;;5018311;28;19991;-75
2023/01/06 01:23:45;;;;;;;;;;;9.90;99.90;;;;;;5020996;28;20370;-75
2023/01/06 01:26:12;;;;;;;;;;;9.90;99.90;;;;;;5037046;28;19921;-74
2023/01/06 01:28:41;;;;;;;;;;;9.80;99.90;;;;;;5026585;28;19983;-74
2023/01/06 01:31:07;;;;;;;;;;;9.80;99.90;;;;;;5025648;28;20425;-74
2023/01/06 01:33:32;;;;;;;;;;;9.80;99.90;;;;;;5040753;28;19921;-74
2023/01/06 01:36:04;;;;;;;;;;;9.80;99.90;;;;;;5025676;28;20371;-74
2023/01/06 01:38:29;;;;;;;;;;;9.80;99.90;;;;;;5010536;28;20317;-74
2023/01/06 01:40:55;;;;;;;;;;;9.90;99.90;;;;;;5024180;28;19921;-74
2023/01/06 01:43:21;;;;;;;;;;;9.90;99.90;;;;;;5024036;28;19952;-74
2023/01/06 01:45:48;;;;;;;;;;;9.80;99.90;;;;;;5008842;28;20344;-74
2023/01/06 01:48:23;;;;;;;;;;;9.90;99.90;;;;;;5021110;28;20902;-74
2023/01/06 01:50:50;;;;;;;;;;;9.90;99.90;;;;;;5021784;28;20508;-75
2023/01/06 01:53:19;;;;;;;;;;;9.80;99.90;;;;;;5040010;28;20027;-74
2023/01/06 01:55:47;;;;;;;;;;;9.80;99.90;;;;;;5025371;28;19921;-75
2023/01/06 01:58:14;;;;;;;;;;;9.80;99.90;;;;;;5036671;28;20380;-74
2023/01/06 02:00:41;;;;;;;;;;;9.80;99.90;;;;;;5024701;28;20295;-74
2023/01/06 02:03:10;;;;;;;;;;;9.80;99.90;;;;;;5025935;28;20326;-74
2023/01/06 02:05:38;;;;;;;;;;;9.80;99.90;;;;;;5034221;28;19920;-74
2023/01/06 02:08:06;;;;;;;;;;;9.80;99.90;;;;;;5009233;28;19953;-74
2023/01/06 02:10:31;;;;;;;;;;;9.80;99.90;;;;;;5024333;28;19925;-75
2023/01/06 02:12:58;;;;;;;;;;;9.80;99.90;;;;;;5025217;28;20020;-75
2023/01/06 02:15:26;;;;;;;;;;;9.80;99.90;;;;;;5039384;28;20284;-74
2023/01/06 02:18:04;;;;;;;;;;;9.80;99.90;;;;;;5008802;28;20585;-74
2023/01/06 02:20:36;;;;;;;;;;;9.80;99.90;;;;;;5023544;28;19940;-75
2023/01/06 02:23:10;;;;;;;;;;;9.80;99.90;;;;;;5029312;28;19925;-74
2023/01/06 02:25:45;;;;;;;;;;;9.80;99.90;;;;;;5034382;28;20004;-74
2023/01/06 02:28:30;;;;;;;;;;;9.80;99.90;;;;;;5048953;28;19963;-74
2023/01/06 02:31:14;;;;;;;;;;;9.90;99.90;;;;;;5027662;28;19925;-75
2023/01/06 02:34:01;;;;;;;;;;;9.90;99.90;;;;;;5022187;28;20226;-75
2023/01/06 02:36:48;;;;;;;;;;;9.90;99.90;;;;;;5019727;28;19935;-74
2023/01/06 02:39:29;;;;;;;;;;;10.60;99.90;;;;;;5023607;28;19936;-74
2023/01/06 02:42:24;;;;;;;;;;;9.80;99.90;;;;;;5007065;28;21660;-74
2023/01/06 02:44:49;;;;;;;;;;;9.80;99.90;;;;;;4990810;28;19957;-74
2023/01/06 02:47:20;;;;;;;;;;;9.80;99.90;;;;;;5008538;28;19957;-74
2023/01/06 02:49:45;;;;;;;;;;;9.80;99.90;;;;;;5038641;28;19937;-75
2023/01/06 02:52:18;;;;;;;;;;;9.80;99.90;;;;;;5008768;28;22170;-74
2023/01/06 02:54:51;;;;;;;;;;;9.80;99.90;;;;;;5021557;28;20298;-74
2023/01/06 02:57:29;;;;;;;;;;;9.80;99.90;;;;;;5022055;28;20000;-74
2023/01/06 03:00:04;;;;;;;;;;;9.80;99.90;;;;;;5023652;28;20406;-75
2023/01/06 03:02:30;;;;;;;;;;;9.80;99.90;;;;;;5006579;28;20042;-75
2023/01/06 03:04:58;;;;;;;;;;;9.80;99.90;;;;;;5020134;28;20333;-75
2023/01/06 03:07:24;;;;;;;;;;;9.80;99.90;;;;;;5035026;28;19925;-75
2023/01/06 03:09:51;;;;;;;;;;;9.80;99.90;;;;;;5036606;28;19921;-75
2023/01/06 03:12:29;;;;;;;;;;;9.80;99.90;;;;;;5034776;28;20383;-75
2023/01/06 03:14:55;;;;;;;;;;;9.80;99.90;;;;;;5020482;28;19948;-74
2023/01/06 03:17:22;;;;;;;;;;;9.80;99.90;;;;;;5006705;28;20016;-75
2023/01/06 03:19:47;;;;;;;;;;;9.80;99.90;;;;;;5004787;28;19931;-74
2023/01/06 03:22:19;;;;;;;;;;;9.80;99.90;;;;;;5023785;28;20020;-74
2023/01/06 03:24:46;;;;;;;;;;;9.90;99.90;;;;;;5033584;28;20337;-75
2023/01/06 03:27:13;;;;;;;;;;;9.80;99.90;;;;;;5021615;28;20330;-74
2023/01/06 03:29:39;;;;;;;;;;;9.80;99.90;;;;;;5006203;28;19952;-74
2023/01/06 03:32:04;;;;;;;;;;;9.80;99.90;;;;;;5036468;28;20470;-74
2023/01/06 03:34:30;;;;;;;;;;;9.80;99.90;;;;;;5004162;28;19933;-74
2023/01/06 03:37:14;;;;;;;;;;;9.80;99.90;;;;;;5017567;28;19925;-75
2023/01/06 03:39:55;;;;;;;;;;;9.70;99.90;;;;;;5037625;28;20334;-75
2023/01/06 03:45:14;;;;;;;;;;;9.70;99.90;;;;;;5020383;28;19964;-75
2023/01/06 03:47:55;;;;;;;;;;;9.70;99.90;;;;;;5022919;28;20514;-74
2023/01/06 03:50:44;;;;;;;;;;;9.70;99.90;;;;;;5030070;28;20048;-74
2023/01/06 03:53:15;;;;;;;;;;;9.70;99.90;;;;;;5040719;28;20280;-74
2023/01/06 03:55:43;;;;;;;;;;;9.80;99.90;;;;;;5031032;28;19984;-74
2023/01/06 03:58:09;;;;;;;;;;;9.70;99.90;;;;;;5026370;28;20318;-73
2023/01/06 04:00:36;;;;;;;;;;;9.80;99.90;;;;;;4990762;28;19929;-74
2023/01/06 04:03:03;;;;;;;;;;;9.70;99.90;;;;;;5036939;28;19929;-74
2023/01/06 04:05:28;;;;;;;;;;;9.70;99.90;;;;;;5019431;28;20283;-74
2023/01/06 04:07:54;;;;;;;;;;;9.70;99.90;;;;;;5024219;28;19956;-74
2023/01/06 04:10:22;;;;;;;;;;;9.70;99.90;;;;;;4991007;28;19959;-74
2023/01/06 04:12:48;;;;;;;;;;;9.80;99.90;;;;;;5022771;28;19975;-74
2023/01/06 04:15:15;;;;;;;;;;;9.70;99.90;;;;;;5005268;28;19925;-74
2023/01/06 04:17:41;;;;;;;;;;;9.70;99.90;;;;;;5022009;28;20004;-74
2023/01/06 04:20:08;;;;;;;;;;;9.70;99.90;;;;;;5004669;28;20021;-74
2023/01/06 04:22:34;;;;;;;;;;;9.70;99.90;;;;;;5022682;28;19943;-74
2023/01/06 04:25:00;;;;;;;;;;;9.70;99.90;;;;;;5034246;28;20014;-74
2023/01/06 04:27:25;;;;;;;;;;;9.70;99.90;;;;;;5016385;28;20395;-75
2023/01/06 04:29:51;;;;;;;;;;;9.70;99.90;;;;;;5019864;28;19928;-75
2023/01/06 04:32:16;;;;;;;;;;;9.80;99.90;;;;;;5022611;28;19982;-74
2023/01/06 04:34:42;;;;;;;;;;;9.70;99.90;;;;;;5020389;28;19979;-75
2023/01/06 04:37:08;;;;;;;;;;;9.70;99.90;;;;;;5020884;28;19980;-74
2023/01/06 04:39:33;;;;;;;;;;;9.70;99.90;;;;;;5034022;28;19936;-74
2023/01/06 04:41:59;;;;;;;;;;;9.70;99.90;;;;;;5005289;28;19921;-74
2023/01/06 04:44:24;;;;;;;;;;;9.70;99.90;;;;;;5005536;28;21285;-74
2023/01/06 04:46:50;;;;;;;;;;;9.70;99.90;;;;;;5022091;28;19941;-74
2023/01/06 04:49:16;;;;;;;;;;;9.70;99.90;;;;;;5033961;28;20434;-74
2023/01/06 04:51:41;;;;;;;;;;;9.70;99.90;;;;;;5034765;28;19928;-74
2023/01/06 04:54:09;;;;;;;;;;;9.70;99.90;;;;;;5020643;28;19921;-74
2023/01/06 04:56:35;;;;;;;;;;;9.70;99.90;;;;;;5021125;28;19940;-74
2023/01/06 04:59:03;;;;;;;;;;;9.70;99.90;;;;;;5040531;28;19929;-74
2023/01/06 05:01:28;;;;;;;;;;;9.70;99.90;;;;;;5024559;28;19982;-74
2023/01/06 05:03:54;;;;;;;;;;;9.60;99.90;;;;;;5040429;28;20374;-74
2023/01/06 05:06:19;;;;;;;;;;;9.60;99.90;;;;;;5008169;28;19924;-74
2023/01/06 05:08:45;;;;;;;;;;;9.70;99.90;;;;;;5036919;28;19932;-74
2023/01/06 05:11:21;;;;;;;;;;;9.70;99.90;;;;;;5026009;28;19925;-73
2023/01/06 05:13:47;;;;;;;;;;;9.70;99.90;;;;;;5037203;28;21455;-73
2023/01/06 05:16:18;;;;;;;;;;;9.70;99.90;;;;;;5021863;28;19947;-74
2023/01/06 05:18:44;;;;;;;;;;;9.70;99.90;;;;;;5023983;28;19929;-74
2023/01/06 05:21:10;;;;;;;;;;;9.70;99.90;;;;;;5021156;28;19974;-74
2023/01/06 05:23:36;;;;;;;;;;;9.70;99.90;;;;;;5008552;28;19978;-74
2023/01/06 05:26:01;;;;;;;;;;;9.70;99.90;;;;;;5024225;28;20378;-74
2023/01/06 05:28:30;;;;;;;;;;;9.70;99.90;;;;;;5011069;28;19983;-74
2023/01/06 05:31:03;;;;;;;;;;;9.70;99.90;;;;;;5006884;28;20390;-74
2023/01/06 05:33:29;;;;;;;;;;;9.70;99.90;;;;;;5036644;28;20434;-74
2023/01/06 05:35:58;;;;;;;;;;;9.70;99.90;;;;;;5035819;28;20019;-74
2023/01/06 05:38:24;;;;;;;;;;;9.70;99.90;;;;;;5007554;28;19925;-73
2023/01/06 05:40:50;;;;;;;;;;;9.70;99.90;;;;;;5023954;28;19941;-74
2023/01/06 05:43:16;;;;;;;;;;;9.70;99.90;;;;;;5020159;28;19921;-74
2023/01/06 05:45:41;;;;;;;;;;;9.70;99.90;;;;;;5023615;28;20274;-74
2023/01/06 05:48:07;;;;;;;;;;;9.80;99.90;;;;;;5026108;28;19921;-74
2023/01/06 05:50:33;;;;;;;;;;;9.70;99.90;;;;;;5038327;28;19964;-74
2023/01/06 05:52:58;;;;;;;;;;;9.80;99.90;;;;;;5008554;28;19947;-74
2023/01/06 05:55:24;;;;;;;;;;;9.80;99.90;;;;;;5021880;28;19925;-73
2023/01/06 05:57:49;;;;;;;;;;;9.80;99.90;;;;;;5023631;28;19975;-74
2023/01/06 06:00:15;;;;;;;;;;;9.80;99.90;;;;;;5037632;28;21478;-74
2023/01/06 06:02:40;;;;;;;;;;;9.70;99.90;;;;;;5007989;28;19922;-74
2023/01/06 06:05:07;;;;;;;;;;;9.70;99.90;;;;;;5007347;28;20366;-74
2023/01/06 06:07:33;;;;;;;;;;;9.80;99.90;;;;;;5028018;28;19928;-74
2023/01/06 06:09:59;;;;;;;;;;;9.80;99.90;;;;;;5020914;28;20369;-74
2023/01/06 06:12:24;;;;;;;;;;;9.80;99.90;;;;;;5036516;28;19921;-74
2023/01/06 06:14:50;;;;;;;;;;;9.80;99.90;;;;;;5002095;28;20321;-75
2023/01/06 06:17:15;;;;;;;;;;;9.80;99.90;;;;;;4991393;28;20427;-74
2023/01/06 06:19:41;;;;;;;;;;;9.80;99.90;;;;;;5023289;28;19980;-75
2023/01/06 06:22:06;;;;;;;;;;;9.90;99.90;;;;;;5025568;28;19936;-74
2023/01/06 06:24:32;;;;;;;;;;;9.80;99.90;;;;;;5040065;28;20162;-74
2023/01/06 06:26:58;;;;;;;;;;;9.80;99.90;;;;;;5023075;28;19921;-74
2023/01/06 06:29:23;;;;;;;;;;;9.80;99.90;;;;;;4989858;28;19948;-74
2023/01/06 06:31:52;;;;;;;;;;;9.80;99.90;;;;;;5024301;28;19951;-74
2023/01/06 06:34:17;;;;;;;;;;;9.70;99.90;;;;;;5024016;28;19925;-74
2023/01/06 06:36:46;;;;;;;;;;;9.70;99.90;;;;;;5023053;28;19928;-74
2023/01/06 06:39:11;;;;;;;;;;;9.70;99.90;;;;;;5022225;28;20299;-74
2023/01/06 06:41:37;;;;;;;;;;;9.70;99.90;;;;;;5035260;28;19975;-74
2023/01/06 06:44:04;;;;;;;;;;;9.70;99.90;;;;;;5024399;28;20335;-74
2023/01/06 06:46:29;;;;;;;;;;;9.60;99.90;;;;;;5035690;28;19928;-75
2023/01/06 06:48:55;;;;;;;;;;;9.60;99.90;;;;;;5035425;28;19925;-74
2023/01/06 06:51:21;;;;;;;;;;;9.60;99.90;;;;;;5037034;28;19929;-74
2023/01/06 06:53:46;;;;;;;;;;;9.60;99.90;;;;;;5039223;28;19925;-75
2023/01/06 06:56:13;;;;;;;;;;;9.60;99.90;;;;;;5024812;28;19925;-74
2023/01/06 06:58:39;;;;;;;;;;;9.60;99.90;;;;;;5034179;28;20279;-74
2023/01/06 07:01:05;;;;;;;;;;;9.50;99.90;;;;;;5023173;28;20240;-74
2023/01/06 07:03:30;;;;;;;;;;;9.50;99.90;;;;;;5036123;28;19951;-75
2023/01/06 07:05:56;;;;;;;;;;;9.50;99.90;;;;;;5005735;28;20323;-75
2023/01/06 07:08:22;;;;;;;;;;;9.40;99.90;;;;;;5036224;28;19921;-75
2023/01/06 07:10:47;;;;;;;;;;;9.30;99.90;;;;;;4992443;28;19931;-74
2023/01/06 07:13:13;;;;;;;;;;;9.30;99.90;;;;;;5036430;28;19933;-74
2023/01/06 07:15:38;;;;;;;;;;;9.20;99.90;;;;;;5036198;28;19945;-75
2023/01/06 07:18:05;;;;;;;;;;;9.20;99.90;;;;;;5020855;28;20367;-75
2023/01/06 07:20:31;;;;;;;;;;;9.20;99.90;;;;;;5022457;28;19948;-76
2023/01/06 07:22:57;;;;;;;;;;;9.20;99.90;;;;;;5034806;28;19925;-75
2023/01/06 07:25:25;;;;;;;;;;;9.20;99.90;;;;;;5023745;28;19921;-74
2023/01/06 07:27:57;;;;;;;;;;;9.20;99.90;;;;;;5021515;28;20287;-75
2023/01/06 07:30:23;;;;;;;;;;;9.20;99.90;;;;;;5034581;28;19929;-75
2023/01/06 07:32:49;;;;;;;;;;;9.20;99.90;;;;;;5035801;28;19929;-75
2023/01/06 07:35:15;;;;;;;;;;;9.20;99.90;;;;;;5006866;28;19929;-75
2023/01/06 07:37:41;;;;;;;;;;;9.20;99.90;;;;;;5020190;28;19929;-74
2023/01/06 07:40:07;;;;;;;;;;;9.20;99.90;;;;;;5034712;28;19929;-74
2023/01/06 07:42:34;;;;;;;;;;;9.20;99.90;;;;;;5035881;28;20035;-75
2023/01/06 07:44:59;;;;;;;;;;;9.20;99.90;;;;;;5006668;28;19956;-75
2023/01/06 07:47:25;;;;;;;;;;;9.30;99.90;;;;;;5006648;28;19921;-75
2023/01/06 07:49:50;;;;;;;;;;;9.30;99.90;;;;;;5022038;28;19937;-75
2023/01/06 07:52:16;;;;;;;;;;;9.30;99.90;;;;;;5036436;28;19921;-75
2023/01/06 07:54:42;;;;;;;;;;;9.20;99.90;;;;;;5007298;28;20344;-76
2023/01/06 07:57:07;;;;;;;;;;;9.30;99.90;;;;;;5021117;28;20003;-76
2023/01/06 07:59:33;;;;;;;;;;;9.30;99.90;;;;;;5006254;28;20453;-76
2023/01/06 08:01:58;;;;;;;;;;;9.30;99.90;;;;;;5022172;28;19964;-75
2023/01/06 08:04:24;;;;;;;;;;;9.30;99.90;;;;;;5021916;28;19924;-75
2023/01/06 08:06:50;;;;;;;;;;;9.40;99.90;;;;;;5036054;28;19940;-76
2023/01/06 08:09:15;;;;;;;;;;;9.30;99.90;;;;;;5021207;28;19932;-75
2023/01/06 08:11:41;;;;;;;;;;;9.30;99.90;;;;;;5008786;28;20353;-77
2023/01/06 08:14:06;;;;;;;;;;;9.30;99.90;;;;;;5018379;28;19929;-77
2023/01/06 08:16:32;;;;;;;;;;;9.40;99.90;;;;;;5023381;28;20366;-78
2023/01/06 08:19:00;;;;;;;;;;;9.30;99.90;;;;;;5006262;28;19931;-78
2023/01/06 08:21:26;;;;;;;;;;;9.30;99.90;;;;;;5003079;28;20016;-79
2023/01/06 08:23:52;;;;;;;;;;;9.40;99.90;;;;;;5023402;28;20395;-78
2023/01/06 08:26:17;;;;;;;;;;;9.30;99.90;;;;;;5010144;28;19973;-78
2023/01/06 08:28:44;;;;;;;;;;;9.40;99.90;;;;;;5008882;28;19922;-78
2023/01/06 08:31:13;;;;;;;;;;;9.40;99.90;;;;;;5003680;28;19928;-77
2023/01/06 08:33:38;;;;;;;;;;;9.40;99.90;;;;;;5020781;28;20443;-77
2023/01/06 08:36:05;;;;;;;;;;;9.40;99.90;;;;;;5026861;28;19933;-77
2023/01/06 08:38:32;;;;;;;;;;;9.40;99.90;;;;;;5021544;28;19936;-76
2023/01/06 08:40:58;;;;;;;;;;;9.40;99.90;;;;;;5023144;28;20020;-76
2023/01/06 08:43:24;;;;;;;;;;;9.40;99.90;;;;;;5028045;28;19911;-76
2023/01/06 08:45:50;;;;;;;;;;;9.40;99.90;;;;;;5032928;28;19940;-76
2023/01/06 08:48:16;;;;;;;;;;;9.30;99.90;;;;;;5047625;28;19921;-76
2023/01/06 08:50:42;;;;;;;;;;;9.30;99.90;;;;;;5014651;28;19925;-76
2023/01/06 08:53:09;;;;;;;;;;;9.20;99.90;;;;;;5003794;28;20272;-76
2023/01/06 08:55:38;;;;;;;;;;;9.10;99.90;;;;;;5031811;28;19932;-76
2023/01/06 08:58:03;;;;;;;;;;;9.00;99.90;;;;;;5027829;28;19921;-75
2023/01/06 09:00:29;;;;;;;;;;;8.90;99.90;;;;;;5029204;28;19943;-75
2023/01/06 09:02:55;;;;;;;;;;;8.90;99.90;;;;;;5026257;28;19936;-76
2023/01/06 09:05:20;;;;;;;;;;;9.00;99.90;;;;;;5011868;28;19972;-76
2023/01/06 09:07:46;;;;;;;;;;;9.20;99.90;;;;;;5024497;28;19968;-76
2023/01/06 09:10:11;;;;;;;;;;;9.60;99.90;;;;;;5037306;28;19932;-76
2023/01/06 09:12:37;;;;;;;;;;;10.30;99.90;;;;;;5011875;28;19929;-76
2023/01/06 09:15:03;;;;;;;;;;;11.00;99.90;;;;;;5014350;28;20353;-76
2023/01/06 09:17:29;;;;;;;;;;;11.40;99.90;;;;;;5033160;28;19947;-76
2023/01/06 09:19:55;;;;;;;;;;;12.00;99.90;;;;;;5016177;28;19925;-76
2023/01/06 09:22:20;;;;;;;;;;;12.30;99.90;;;;;;5037809;28;19936;-76
2023/01/06 09:24:46;;;;;;;;;;;12.50;99.90;;;;;;5015461;28;20423;-76
2023/01/06 09:27:11;;;;;;;;;;;12.90;99.90;;;;;;5041760;28;20748;-75
2023/01/06 09:29:37;;;;;;;;;;;12.80;99.90;;;;;;5015312;28;20353;-76
2023/01/06 09:32:03;;;;;;;;;;;12.40;99.90;;;;;;5016192;28;19921;-75
2023/01/06 09:34:31;;;;;;;;;;;12.50;99.90;;;;;;5025714;28;19921;-75
2023/01/06 09:36:57;;;;;;;;;;;12.30;99.90;;;;;;4992598;28;20035;-75
2023/01/06 09:39:23;;;;;;;;;;;12.00;99.90;;;;;;5021489;28;19929;-75
2023/01/06 09:42:07;;;;;;;;;;;12.00;99.90;;;;;;5025560;28;19929;-75
2023/01/06 09:44:39;;;;;;;;;;;12.20;99.90;;;;;;5034334;28;20378;-75
2023/01/06 09:47:10;;;;;;;;;;;12.20;99.90;;;;;;5035914;28;19987;-75
2023/01/06 09:49:43;;;;;;;;;;;12.30;99.90;;;;;;5010687;28;19970;-75
2023/01/06 09:52:15;;;;;;;;;;;12.20;99.90;;;;;;5037155;28;19925;-75
2023/01/06 09:55:01;;;;;;;;;;;12.30;99.90;;;;;;5024694;28;20498;-75
2023/01/06 09:57:32;;;;;;;;;;;12.00;99.90;;;;;;5027228;28;20249;-75
2023/01/06 10:00:13;;;;;;;;;;;11.50;99.90;;;;;;5036055;28;19929;-75
2023/01/06 10:02:41;;;;;;;;;;;11.10;99.90;;;;;;5032134;28;19935;-75
2023/01/06 10:05:27;;;;;;;;;;;10.80;99.90;;;;;;5039634;28;19994;-75
2023/01/06 10:07:53;;;;;;;;;;;10.90;99.90;;;;;;5014504;28;19932;-75
2023/01/06 10:10:21;;;;;;;;;;;10.70;99.90;;;;;;5030689;28;19920;-75
2023/01/06 10:12:47;;;;;;;;;;;10.50;99.90;;;;;;5028547;28;19929;-75
2023/01/06 10:15:16;;;;;;;;;;;10.40;99.90;;;;;;5037881;28;19936;-75
2023/01/06 10:17:47;;;;;;;;;;;10.50;99.90;;;;;;5038315;28;19927;-75
2023/01/06 10:20:31;;;;;;;;;;;10.50;99.90;;;;;;5027104;28;20320;-74
2023/01/06 10:22:57;;;;;;;;;;;10.30;99.90;;;;;;5034165;28;19952;-73
2023/01/06 10:25:45;;;;;;;;;;;10.30;99.90;;;;;;5026722;28;20294;-74
2023/01/06 10:28:37;;;;;;;;;;;10.10;99.90;;;;;;5025286;28;19925;-74
2023/01/06 10:31:08;;;;;;;;;;;9.90;99.90;;;;;;5008924;28;19920;-74
2023/01/06 10:33:36;;;;;;;;;;;9.90;99.90;;;;;;5035262;28;19929;-75
2023/01/06 10:36:02;;;;;;;;;;;10.10;99.90;;;;;;5025293;28;19979;-75
2023/01/06 10:38:28;;;;;;;;;;;10.10;99.90;;;;;;5033486;28;20928;-75
2023/01/06 10:40:57;;;;;;;;;;;9.90;99.90;;;;;;5026282;28;21721;-74
2023/01/06 10:43:24;;;;;;;;;;;9.70;99.90;;;;;;5036640;28;19929;-75
2023/01/06 10:45:52;;;;;;;;;;;9.60;99.90;;;;;;5034731;28;20382;-74
2023/01/06 10:48:19;;;;;;;;;;;9.40;99.90;;;;;;5011964;28;19933;-74
2023/01/06 10:50:44;;;;;;;;;;;9.40;99.90;;;;;;5026938;28;19951;-75
2023/01/06 10:53:11;;;;;;;;;;;9.30;99.90;;;;;;4995550;28;19925;-74
2023/01/06 10:55:45;;;;;;;;;;;9.40;99.90;;;;;;5022963;28;20046;-75
2023/01/06 10:58:36;;;;;;;;;;;9.40;99.90;;;;;;5023459;28;20356;-74
2023/01/06 11:01:14;;;;;;;;;;;9.50;99.90;;;;;;5031345;28;19975;-75
2023/01/06 11:03:43;;;;;;;;;;;9.50;99.90;;;;;;5033007;28;20016;-75
2023/01/06 11:06:14;;;;;;;;;;;9.50;99.90;;;;;;5028926;28;19976;-74
2023/01/06 11:08:40;;;;;;;;;;;9.50;99.90;;;;;;5018179;28;20294;-74
2023/01/06 11:11:14;;;;;;;;;;;9.50;99.90;;;;;;5003140;28;20374;-74
2023/01/06 11:13:40;;;;;;;;;;;9.40;99.90;;;;;;5041999;28;19936;-75
2023/01/06 11:16:16;;;;;;;;;;;9.40;99.90;;;;;;5020077;28;19979;-75
2023/01/06 11:18:41;;;;;;;;;;;9.40;99.90;;;;;;5031837;28;19925;-75
2023/01/06 11:21:18;;;;;;;;;;;9.40;99.90;;;;;;5007533;28;20316;-75
2023/01/06 11:24:07;;;;;;;;;;;9.50;99.90;;;;;;5009705;28;19964;-75
2023/01/06 11:26:45;;;;;;;;;;;9.50;99.90;;;;;;5034613;28;19921;-74
2023/01/06 11:29:29;;;;;;;;;;;9.60;99.90;;;;;;5041375;28;19925;-75
2023/01/06 11:31:56;;;;;;;;;;;9.60;99.90;;;;;;5026107;28;19929;-75
2023/01/06 11:34:23;;;;;;;;;;;9.50;99.90;;;;;;5028926;28;19964;-75
2023/01/06 11:36:49;;;;;;;;;;;9.50;99.90;;;;;;5045192;28;19975;-75
2023/01/06 11:39:20;;;;;;;;;;;9.50;99.90;;;;;;5026585;28;19929;-75
2023/01/06 11:41:48;;;;;;;;;;;9.50;99.90;;;;;;5026677;28;19964;-75
2023/01/06 11:44:32;;;;;;;;;;;9.60;99.90;;;;;;5024024;28;19922;-75
2023/01/06 11:47:00;;;;;;;;;;;9.60;99.90;;;;;;5034558;28;19924;-74
2023/01/06 11:49:57;;;;;;;;;;;9.50;99.90;;;;;;5021340;28;19933;-75
2023/01/06 11:52:30;;;;;;;;;;;9.50;99.90;;;;;;5022545;28;20252;-75
2023/01/06 11:55:01;;;;;;;;;;;9.50;99.90;;;;;;5019715;28;20040;-75
2023/01/06 11:57:32;;;;;;;;;;;9.60;99.90;;;;;;5021989;28;19944;-75
2023/01/06 12:00:04;;;;;;;;;;;9.60;99.90;;;;;;5007044;28;19925;-75
2023/01/06 12:02:36;;;;;;;;;;;9.60;99.90;;;;;;5020465;28;20047;-75
2023/01/06 12:05:04;;;;;;;;;;;9.50;99.90;;;;;;5020632;28;19947;-75
2023/01/06 12:07:42;;;;;;;;;;;9.50;99.90;;;;;;5023159;28;19921;-75
2023/01/06 12:10:18;;;;;;;;;;;9.50;99.90;;;;;;5002572;28;20306;-74
2023/01/06 12:12:43;;;;;;;;;;;9.50;99.90;;;;;;5021507;28;19929;-73
2023/01/06 12:15:13;;;;;;;;;;;9.50;99.90;;;;;;4990861;28;19963;-74
2023/01/06 12:17:42;;;;;;;;;;;9.50;99.90;;;;;;5005085;28;20179;-74
2023/01/06 12:20:20;;;;;;;;;;;9.60;99.90;;;;;;5020834;28;19932;-74
2023/01/06 12:22:48;;;;;;;;;;;9.60;99.90;;;;;;5019948;28;19921;-73
2023/01/06 12:25:23;;;;;;;;;;;9.60;99.90;;;;;;5022836;28;19929;-73
2023/01/06 12:27:57;;;;;;;;;;;9.60;99.90;;;;;;5021859;28;19928;-74
2023/01/06 12:30:32;;;;;;;;;;;9.60;99.90;;;;;;5038704;28;19921;-73
2023/01/06 12:33:02;;;;;;;;;;;9.60;99.90;;;;;;5023185;28;19968;-74
2023/01/06 12:35:29;;;;;;;;;;;9.50;99.90;;;;;;5033179;28;19928;-73
2023/01/06 12:37:57;;;;;;;;;;;9.50;99.90;;;;;;5006121;28;19925;-74
2023/01/06 12:40:30;;;;;;;;;;;9.50;99.90;;;;;;5020114;28;19956;-74
2023/01/06 12:43:06;;;;;;;;;;;9.40;99.90;;;;;;5034578;28;19925;-74
2023/01/06 12:45:31;;;;;;;;;;;9.40;99.90;;;;;;5020117;28;20015;-73
2023/01/06 12:47:58;;;;;;;;;;;9.40;99.90;;;;;;5005349;28;20023;-74
2023/01/06 12:50:44;;;;;;;;;;;9.50;99.90;;;;;;5022496;28;20314;-74
2023/01/06 12:53:31;;;;;;;;;;;9.50;99.90;;;;;;5019527;28;20020;-73
2023/01/06 12:56:06;;;;;;;;;;;9.50;99.90;;;;;;5003623;28;20387;-74
2023/01/06 12:58:34;;;;;;;;;;;9.50;99.90;;;;;;5033197;28;19944;-74
2023/01/06 13:01:04;;;;;;;;;;;9.50;99.90;;;;;;5025705;28;19929;-74
2023/01/06 13:03:59;;;;;;;;;;;9.60;99.90;;;;;;5025028;28;19925;-74
2023/01/06 13:06:50;;;;;;;;;;;9.70;99.90;;;;;;5014738;28;19996;-74
2023/01/06 13:09:16;;;;;;;;;;;9.70;99.90;;;;;;5000275;28;19925;-74
2023/01/06 13:11:51;;;;;;;;;;;9.70;99.90;;;;;;5026957;28;20444;-74
2023/01/06 13:14:26;;;;;;;;;;;9.70;99.90;;;;;;5026305;28;19921;-74
2023/01/06 13:16:54;;;;;;;;;;;9.60;99.90;;;;;;5039563;28;19936;-74
2023/01/06 13:19:39;;;;;;;;;;;9.60;99.90;;;;;;5034621;28;20073;-74
2023/01/06 13:22:07;;;;;;;;;;;9.60;99.90;;;;;;5041925;28;19921;-74
2023/01/06 13:24:42;;;;;;;;;;;9.50;99.90;;;;;;5035848;28;20267;-74
2023/01/06 13:27:14;;;;;;;;;;;9.50;99.90;;;;;;5031748;28;20278;-74
2023/01/06 13:29:48;;;;;;;;;;;9.40;99.90;;;;;;5020383;28;20005;-74
2023/01/06 13:32:17;;;;;;;;;;;9.40;99.90;;;;;;5045021;28;19925;-74
2023/01/06 13:34:42;;;;;;;;;;;9.40;99.90;;;;;;5023423;28;19983;-74
2023/01/06 13:37:08;;;;;;;;;;;9.40;99.90;;;;;;5028293;28;19976;-74
2023/01/06 13:39:37;;;;;;;;;;;9.30;99.90;;;;;;5037601;28;19925;-74
2023/01/06 13:42:04;;;;;;;;;;;9.30;99.90;;;;;;5021089;28;20229;-73
2023/01/06 13:44:33;;;;;;;;;;;9.30;99.90;;;;;;5004830;28;19929;-74
2023/01/06 13:47:04;;;;;;;;;;;9.20;99.90;;;;;;5044568;28;20396;-74
2023/01/06 13:49:30;;;;;;;;;;;9.20;99.90;;;;;;5023334;28;19921;-74
2023/01/06 13:51:56;;;;;;;;;;;9.20;99.90;;;;;;5030413;28;20370;-74
2023/01/06 13:54:43;;;;;;;;;;;9.20;99.90;;;;;;5006548;28;19929;-74
2023/01/06 13:57:21;;;;;;;;;;;9.20;99.90;;;;;;5013998;28;19921;-74
2023/01/06 14:00:09;;;;;;;;;;;9.10;99.90;;;;;;5015269;28;19940;-74
2023/01/06 14:02:36;;;;;;;;;;;9.10;99.90;;;;;;5027829;28;19922;-74
2023/01/06 14:05:03;;;;;;;;;;;9.10;99.90;;;;;;5028258;28;19974;-74
2023/01/06 14:07:29;;;;;;;;;;;9.10;99.90;;;;;;5019699;28;19928;-74
2023/01/06 14:09:55;;;;;;;;;;;9.10;99.90;;;;;;4998838;28;19922;-74
2023/01/06 14:12:22;;;;;;;;;;;9.00;99.90;;;;;;5028075;28;20404;-74
2023/01/06 14:14:54;;;;;;;;;;;9.00;99.90;;;;;;5013693;28;19921;-74
2023/01/06 14:17:49;;;;;;;;;;;9.00;99.90;;;;;;5030787;28;19926;-74
2023/01/06 14:20:35;;;;;;;;;;;9.00;99.90;;;;;;5021480;28;20304;-74
2023/01/06 14:23:04;;;;;;;;;;;8.90;99.90;;;;;;5021550;28;20008;-74
2023/01/06 14:25:32;;;;;;;;;;;8.90;99.90;;;;;;5037900;28;19928;-74
2023/01/06 14:27:57;;;;;;;;;;;8.90;99.90;;;;;;5032501;28;19920;-74
2023/01/06 14:30:30;;;;;;;;;;;8.90;99.90;;;;;;5012008;28;20292;-73
2023/01/06 14:33:02;;;;;;;;;;;8.90;99.90;;;;;;5026675;28;19921;-74
2023/01/06 14:35:30;;;;;;;;;;;8.80;99.90;;;;;;5041273;28;20020;-74
2023/01/06 14:38:01;;;;;;;;;;;8.80;99.90;;;;;;5023094;28;19967;-74
2023/01/06 14:40:36;;;;;;;;;;;8.70;99.90;;;;;;5034222;28;19925;-74
2023/01/06 14:43:04;;;;;;;;;;;8.80;99.90;;;;;;5021568;28;19933;-73
2023/01/06 14:45:35;;;;;;;;;;;8.70;99.90;;;;;;5029862;28;19921;-74